• Join FlightAware (Why Join?)
  • Login
  • US Flag 
08:22PM EDT


 

Airport Tracker/Info


-or-


 

Live Flight TrackerFlight Track Log ✈ SVA1669 ✈ 22-Apr-2013 ✈ OERK / RUH - OEAB / AHB

Flight Track Log - Related Links

Times and Time Zones

All times are in EDT time to prevent confusion due to time zone crossing. See the SVA1669 flight status page for this flight to view local times or setup timezone preferences in your user account.

Time Position Orientation Groundspeed Altitude Reporting Facility
EDT Latitude Longitude Course Direction KTS MPH feet Rate Location/Type
04:16PM 24.9500 46.7190 70° East 169 194 2,400  Level FlightAware
04:17PM 24.8740 46.7350 169° South 243 280 4,800 2,280 Climbing FlightAware
04:18PM 24.8130 46.6960 210° Southwest 256 295 8,000 3,240 Climbing FlightAware
04:19PM 24.7900 46.6750 220° Southwest 251 289 9,400 2,040 Climbing FlightAware
04:21PM 24.6383 46.5768 210° Southwest  Level Estimated
04:22PM 24.5498 46.5196 210° Southwest  Level Estimated
04:22PM 24.6180 46.5230 210° Southwest 350 403 14,500  Level FlightAware
04:23PM 24.5270 46.4440 218° Southwest 358 412 16,700 1,680 Climbing FlightAware
04:25PM 24.3671 46.3427 210° Southwest  Level Estimated
04:26PM 24.2783 46.2864 210° Southwest  Level Estimated
04:26PM 24.2740 46.2220 210° Southwest 389 448 21,700  Level FlightAware
04:26PM 24.2240 46.1780 219° Southwest 395 455 22,500 1,380 Climbing FlightAware
04:27PM 24.1300 46.0970 218° Southwest 393 452 24,000 1,260 Climbing FlightAware
04:28PM 24.0570 46.0330 219° Southwest 400 460 25,000 1,200 Climbing FlightAware
04:30PM 23.9300 45.9230 218° Southwest 415 478 26,700 1,140 Climbing FlightAware
04:31PM 23.8460 45.8510 218° Southwest 412 474 27,700 1,200 Climbing FlightAware
04:31PM 23.7850 45.7980 218° Southwest 416 479 28,600 1,380 Climbing FlightAware
04:32PM 23.7030 45.7270 218° Southwest 413 475 29,900 1,380 Climbing FlightAware
04:33PM 23.6510 45.6820 218° Southwest 412 474 30,700 840 Climbing FlightAware
04:34PM 23.5440 45.5900 218° Southwest 427 491 31,400 900 Climbing FlightAware
04:36PM 23.3130 45.3920 208° Southwest 411 473 34,000 780 Climbing FlightAware
04:37PM 23.3272 45.4652 208° Southwest  Level Estimated
04:37PM 23.2550 45.3420 218° Southwest 414 476 34,000  Level FlightAware
04:38PM 23.1330 45.2380 218° Southwest 410 472 34,000  Level FlightAware
04:39PM 23.0740 45.1880 218° Southwest 409 471 34,000  Level FlightAware
04:41PM 22.9170 45.0540 218° Southwest 406 467 34,000  Level FlightAware
04:43PM 22.7080 44.8780 218° Southwest 405 466 34,000  Level FlightAware
04:45PM 22.5440 44.7390 218° Southwest 408 470 34,000  Level FlightAware
04:47PM 22.4180 44.6330 218° Southwest 408 470 34,000  Level FlightAware
04:47PM 22.3550 44.5800 218° Southwest 408 470 34,000  Level FlightAware
04:48PM 22.3040 44.5370 218° Southwest 408 470 34,000  Level FlightAware
04:49PM 22.2540 44.4940 219° Southwest 408 470 34,000  Level FlightAware
04:49PM 22.2030 44.4510 218° Southwest 408 470 34,000  Level FlightAware
04:50PM 22.1530 44.4090 218° Southwest 408 470 34,000  Level FlightAware
04:51PM 22.0890 44.3550 218° Southwest 408 470 34,000  Level FlightAware
04:52PM 22.0390 44.3130 218° Southwest 408 470 34,000  Level FlightAware
04:52PM 21.9880 44.2700 218° Southwest 408 470 34,000  Level FlightAware
04:53PM 21.9380 44.2280 218° Southwest 408 470 34,000  Level FlightAware
04:54PM 21.8870 44.1850 218° Southwest 408 470 34,000  Level FlightAware
04:54PM 21.8240 44.1320 218° Southwest 408 470 34,000  Level FlightAware
04:55PM 21.7730 44.0890 218° Southwest 408 470 34,000  Level FlightAware
04:56PM 21.7230 44.0470 218° Southwest 408 470 34,000  Level FlightAware
04:58PM 21.5612 43.9809 201° Southwest  Level Estimated
04:59PM 21.4713 43.9442 201° Southwest  Level Estimated
05:00PM 21.3815 43.9076 201° Southwest  Level Estimated
05:01PM 21.2915 43.8710 201° Southwest  Level Estimated
05:02PM 21.2016 43.8344 201° Southwest  Level Estimated
05:03PM 21.1117 43.7979 201° Southwest  Level Estimated
05:04PM 21.0218 43.7615 201° Southwest  Level Estimated
05:05PM 20.9319 43.7251 201° Southwest  Level Estimated
05:06PM 20.8419 43.6887 201° Southwest  Level Estimated
05:07PM 20.7520 43.6524 201° Southwest  Level Estimated
05:08PM 20.6620 43.6161 201° Southwest  Level Estimated
05:09PM 20.5721 43.5799 201° Southwest  Level Estimated
05:10PM 20.4821 43.5437 201° Southwest  Level Estimated
05:11PM 20.3921 43.5075 201° Southwest  Level Estimated
05:12PM 20.3021 43.4714 201° Southwest  Level Estimated
05:13PM 20.2121 43.4353 201° Southwest  Level Estimated
05:14PM 20.1221 43.3993 201° Southwest  Level Estimated
05:15PM 20.0321 43.3633 201° Southwest  Level Estimated
05:16PM 19.9421 43.3274 201° Southwest  Level Estimated
05:17PM 19.8521 43.2915 201° Southwest  Level Estimated
05:18PM 19.7621 43.2556 201° Southwest  Level Estimated
05:19PM 19.6720 43.2198 201° Southwest  Level Estimated
05:20PM 19.5820 43.1840 201° Southwest  Level Estimated
05:21PM 19.4919 43.1483 201° Southwest  Level Estimated
05:22PM 19.4019 43.1126 201° Southwest  Level Estimated
05:23PM 19.3118 43.0769 200° South  Level Estimated
05:24PM 19.2217 43.0413 200° South  Level Estimated
05:25PM 19.1317 43.0057 200° South  Level Estimated
05:26PM 19.0416 42.9702 200° South  Level Estimated
05:27PM 18.9515 42.9347 200° South  Level Estimated
05:28PM 18.8614 42.8992 200° South  Level Estimated
05:29PM 18.7713 42.8638 200° South  Level Estimated
05:30PM 18.6812 42.8284 200° South  Level Estimated
05:31PM 18.5910 42.7930 200° South  Level Estimated
05:32PM 18.5009 42.7577 200° South  Level Estimated
05:33PM 18.4108 42.7225 200° South  Level Estimated
05:34PM 18.3207 42.6872 200° South  Level Estimated
05:35PM 18.2401 42.6557 200° South  Level Estimated
05:36PM 18.2401 42.6557 247° West  Level Estimated
05:37PM 18.2401 42.6557 247° West  Level Estimated
05:38PM 18.2401 42.6557 247° West  Level Estimated
05:39PM 18.2401 42.6557 247° West  Level Estimated
05:40PM 18.2401 42.6557 247° West  Level Estimated
05:41PM 18.2401 42.6557 247° West  Level Estimated